Radiosonde details



Informationen :

Serial : D25039331
Type : Graw DFM
Frequency : 403.170MHz
Launchsite : -
Nearest town : Weiser, US (36.5km)

Altitude (Max) : 19083m at 2026-08-30 15:34:03
Speed (Max) : 131km/h at altitude 9449m

Average speed : 60km/h
Average ascent rate : 6m/s
Average descent rate : -7m/s
Ascent rate (Max) : 10.9m/s
Descent rate (Max): -13.8m/s

First frame :
KE7DJD at 2026-08-30 15:03:14 at altitude 6968m (OG: 6926m)
Last frame :
KE7DJD at 2026-08-30 16:16:15 at altitude 1312m (OG: 1270m)

Flighttime : 1h13m1s
Ascent time : 30m49s
Descent time : 42m12s
Uptime : -
Killtimer : -

Distance (Straight line distance): 66km

Distance (Route):


Frames : 208


Measurement :

Temperature : 20.9°C
Humidity : 0%
Pressure : 0hPa


Vertical profile (SkewT) :


Elevation profile :



Receiving stations :


Receiver Frames First received Last received
KE7DJD 208 2026-08-30 15:03:14 2026-08-30 16:16:15

Share per receiver :



All frames :


Receiver Date Latitude Longitude Direction Speed Altitude Climb Temperature Humidity Pressure Voltage Killtimer Uptime BKT XDATA
KE7DJD2026-08-30 16:16:1544.39493-117.38140163°16km/h1312m-5.7m/s20.9°C0%0hPa0V00:00:0000:00:0000:00:00
KE7DJD2026-08-30 16:15:5544.39581-117.38159175°15km/h1433m-5.2m/s19.4°C0%0hPa0V00:00:0000:00:0000:00:00
KE7DJD2026-08-30 16:15:3444.39658-117.38170178°15km/h1537m-5.2m/s18.3°C0%0hPa0V00:00:0000:00:0000:00:00
KE7DJD2026-08-30 16:15:1444.39718-117.38174220°7km/h1643m-4.9m/s17.4°C0%0hPa0V00:00:0000:00:0000:00:00
KE7DJD2026-08-30 16:14:5344.39746-117.38127225°7km/h1734m-4.0m/s17.2°C0%0hPa0V00:00:0000:00:0000:00:00
KE7DJD2026-08-30 16:14:3244.39780-117.38100198°5km/h1815m-4.5m/s16.8°C0%0hPa0V00:00:0000:00:0000:00:00
KE7DJD2026-08-30 16:14:1244.39801-117.38094151°4km/h1902m-4.6m/s16.5°C0%0hPa0V00:00:0000:00:0000:00:00
KE7DJD2026-08-30 16:13:5144.39817-117.38108139°5km/h1999m-4.4m/s15.5°C0%0hPa0V00:00:0000:00:0000:00:00
KE7DJD2026-08-30 16:13:3044.39828-117.3814881°7km/h2113m-5.6m/s14.4°C0%0hPa0V00:00:0000:00:0000:00:00
KE7DJD2026-08-30 16:13:1044.39827-117.3820391°11km/h2226m-5.8m/s13.7°C0%0hPa0V00:00:0000:00:0000:00:00
KE7DJD2026-08-30 16:12:4944.39818-117.3831384°20km/h2353m-6.1m/s14.4°C0%0hPa0V00:00:0000:00:0000:00:00
KE7DJD2026-08-30 16:12:2944.39826-117.38445108°18km/h2476m-6.2m/s13.9°C0%0hPa0V00:00:0000:00:0000:00:00
KE7DJD2026-08-30 16:12:0944.39863-117.38593105°26km/h2602m-5.9m/s13.3°C0%0hPa0V00:00:0000:00:0000:00:00
KE7DJD2026-08-30 16:11:4744.39895-117.38803108°31km/h2729m-5.8m/s13.6°C0%0hPa0V00:00:0000:00:0000:00:00
KE7DJD2026-08-30 16:11:2644.39953-117.39013116°31km/h2849m-5.5m/s13.7°C0%0hPa0V00:00:0000:00:0000:00:00
KE7DJD2026-08-30 16:11:0644.40027-117.39213119°29km/h2970m-5.8m/s12.8°C0%0hPa0V00:00:0000:00:0000:00:00
KE7DJD2026-08-30 16:10:4544.40084-117.39420108°29km/h3096m-5.8m/s12.0°C0%0hPa0V00:00:0000:00:0000:00:00
KE7DJD2026-08-30 16:10:2444.40124-117.39619104°29km/h3212m-5.5m/s10.8°C0%0hPa0V00:00:0000:00:0000:00:00
KE7DJD2026-08-30 16:10:0444.40140-117.3984093°31km/h3326m-5.0m/s10.2°C0%0hPa0V00:00:0000:00:0000:00:00
KE7DJD2026-08-30 16:09:4344.40141-117.4006391°33km/h3428m-5.0m/s9.6°C0%0hPa0V00:00:0000:00:0000:00:00
KE7DJD2026-08-30 16:09:2344.40136-117.4030789°37km/h3536m-5.5m/s9.2°C0%0hPa0V00:00:0000:00:0000:00:00
KE7DJD2026-08-30 16:09:0244.40133-117.4055992°29km/h3641m-5.3m/s9.4°C0%0hPa0V00:00:0000:00:0000:00:00
KE7DJD2026-08-30 16:08:4244.40142-117.4077195°29km/h3751m-5.4m/s8.7°C0%0hPa0V00:00:0000:00:0000:00:00
KE7DJD2026-08-30 16:08:2044.40158-117.40986103°29km/h3861m-5.1m/s8.1°C0%0hPa0V00:00:0000:00:0000:00:00
KE7DJD2026-08-30 16:08:0044.40199-117.41173109°27km/h3970m-5.3m/s7.6°C0%0hPa0V00:00:0000:00:0000:00:00
KE7DJD2026-08-30 16:07:4044.40237-117.41360105°27km/h4088m-5.5m/s6.4°C0%0hPa0V00:00:0000:00:0000:00:00
KE7DJD2026-08-30 16:07:1944.40269-117.41542101°27km/h4199m-5.5m/s5.4°C0%0hPa0V00:00:0000:00:0000:00:00
KE7DJD2026-08-30 16:06:5944.40298-117.41730110°27km/h4317m-5.6m/s4.4°C0%0hPa0V00:00:0000:00:0000:00:00
KE7DJD2026-08-30 16:06:3844.40351-117.41916115°29km/h4429m-5.6m/s4.0°C0%0hPa0V00:00:0000:00:0000:00:00
KE7DJD2026-08-30 16:06:1844.40420-117.42121118°35km/h4545m-5.6m/s3.6°C0%0hPa0V00:00:0000:00:0000:00:00
KE7DJD2026-08-30 16:05:5744.40511-117.42355119°42km/h4656m-5.5m/s3.0°C0%0hPa0V00:00:0000:00:0000:00:00
KE7DJD2026-08-30 16:05:3744.40612-117.42653116°46km/h4773m-5.4m/s2.3°C0%0hPa0V00:00:0000:00:0000:00:00
KE7DJD2026-08-30 16:05:1544.40725-117.42962119°47km/h4889m-5.4m/s1.3°C0%0hPa0V00:00:0000:00:0000:00:00
KE7DJD2026-08-30 16:04:5444.40843-117.43256122°44km/h5004m-5.4m/s0.3°C0%0hPa0V00:00:0000:00:0000:00:00
KE7DJD2026-08-30 16:04:3444.40975-117.43558121°51km/h5118m-5.5m/s-0.5°C0%0hPa0V00:00:0000:00:0000:00:00
KE7DJD2026-08-30 16:04:1344.41120-117.43909121°57km/h5229m-5.0m/s-1.0°C0%0hPa0V00:00:0000:00:0000:00:00
KE7DJD2026-08-30 16:03:5244.41262-117.44256122°55km/h5333m-5.2m/s-1.8°C0%0hPa0V00:00:0000:00:0000:00:00
KE7DJD2026-08-30 16:03:3244.41412-117.44594123°51km/h5443m-5.1m/s-2.7°C0%0hPa0V00:00:0000:00:0000:00:00
KE7DJD2026-08-30 16:03:1144.41547-117.44888122°46km/h5547m-5.0m/s-3.4°C0%0hPa0V00:00:0000:00:0000:00:00
KE7DJD2026-08-30 16:02:2944.41795-117.45444131°44km/h5769m-5.5m/s-4.0°C0%0hPa0V00:00:0000:00:0000:00:00
KE7DJD2026-08-30 16:02:0944.41958-117.45700130°53km/h5877m-5.2m/s-4.3°C0%0hPa0V00:00:0000:00:0000:00:00
KE7DJD2026-08-30 16:01:4844.42121-117.46031122°55km/h5990m-5.3m/s-5.0°C0%0hPa0V00:00:0000:00:0000:00:00
KE7DJD2026-08-30 16:01:2844.42268-117.46363122°55km/h6098m-5.4m/s-5.8°C0%0hPa0V00:00:0000:00:0000:00:00
KE7DJD2026-08-30 16:01:0844.42414-117.46743118°58km/h6215m-5.8m/s-6.6°C0%0hPa0V00:00:0000:00:0000:00:00
KE7DJD2026-08-30 16:00:4744.42550-117.47132117°64km/h6328m-5.6m/s-7.6°C0%0hPa0V00:00:0000:00:0000:00:00
KE7DJD2026-08-30 16:00:2644.42697-117.47572115°66km/h6448m-5.7m/s-8.5°C0%0hPa0V00:00:0000:00:0000:00:00
KE7DJD2026-08-30 16:00:0644.42832-117.48009114°68km/h6564m-6.0m/s-9.3°C0%0hPa0V00:00:0000:00:0000:00:00
KE7DJD2026-08-30 15:59:4644.42993-117.48465120°68km/h6687m-6.1m/s-10.0°C0%0hPa0V00:00:0000:00:0000:00:00
KE7DJD2026-08-30 15:59:2544.43171-117.48868124°66km/h6807m-6.1m/s-11.0°C0%0hPa0V00:00:0000:00:0000:00:00
KE7DJD2026-08-30 15:59:0544.43382-117.49257128°68km/h6934m-6.2m/s-11.9°C0%0hPa0V00:00:0000:00:0000:00:00
KE7DJD2026-08-30 15:58:4344.43587-117.49659125°66km/h7063m-6.3m/s-13.0°C0%0hPa0V00:00:0000:00:0000:00:00
KE7DJD2026-08-30 15:58:2244.43776-117.50072123°66km/h7193m-6.2m/s-14.1°C0%0hPa0V00:00:0000:00:0000:00:00
KE7DJD2026-08-30 15:58:0244.43981-117.50482127°69km/h7324m-6.2m/s-15.1°C0%0hPa0V00:00:0000:00:0000:00:00
KE7DJD2026-08-30 15:57:4144.44194-117.50916123°69km/h7456m-6.3m/s-16.2°C0%0hPa0V00:00:0000:00:0000:00:00
KE7DJD2026-08-30 15:57:2044.44372-117.51348120°69km/h7582m-6.5m/s-17.1°C0%0hPa0V00:00:0000:00:0000:00:00
KE7DJD2026-08-30 15:57:0044.44543-117.51821116°73km/h7717m-6.4m/s-18.2°C0%0hPa0V00:00:0000:00:0000:00:00
KE7DJD2026-08-30 15:56:3944.44685-117.52297111°73km/h7846m-6.7m/s-19.3°C0%0hPa0V00:00:0000:00:0000:00:00
KE7DJD2026-08-30 15:56:1944.44830-117.52819113°77km/h7982m-6.6m/s-20.5°C0%0hPa0V00:00:0000:00:0000:00:00
KE7DJD2026-08-30 15:55:5744.44983-117.53361115°80km/h8119m-6.5m/s-21.6°C0%0hPa0V00:00:0000:00:0000:00:00
KE7DJD2026-08-30 15:55:3744.45153-117.53865117°78km/h8250m-6.4m/s-22.9°C0%0hPa0V00:00:0000:00:0000:00:00
KE7DJD2026-08-30 15:55:1644.45352-117.54375122°77km/h8388m-6.6m/s-24.0°C0%0hPa0V00:00:0000:00:0000:00:00
KE7DJD2026-08-30 15:54:5644.45557-117.54861120°80km/h8522m-6.6m/s-25.0°C0%0hPa0V00:00:0000:00:0000:00:00
KE7DJD2026-08-30 15:54:3644.45785-117.55352128°82km/h8665m-6.9m/s-26.1°C0%0hPa0V00:00:0000:00:0000:00:00
KE7DJD2026-08-30 15:54:1544.46045-117.55823131°82km/h8802m-6.8m/s-27.1°C0%0hPa0V00:00:0000:00:0000:00:00
KE7DJD2026-08-30 15:53:5544.46338-117.56301133°82km/h8946m-6.8m/s-28.3°C0%0hPa0V00:00:0000:00:0000:00:00
KE7DJD2026-08-30 15:53:3444.46645-117.56743135°89km/h9084m-7.0m/s-29.0°C0%0hPa0V00:00:0000:00:0000:00:00
KE7DJD2026-08-30 15:53:1444.47008-117.57219139°95km/h9233m-6.9m/s-30.1°C0%0hPa0V00:00:0000:00:0000:00:00
KE7DJD2026-08-30 15:52:5344.47403-117.57711140°99km/h9378m-6.9m/s-30.9°C0%0hPa0V00:00:0000:00:0000:00:00
KE7DJD2026-08-30 15:52:3344.47782-117.58175140°99km/h9520m-7.2m/s-32.2°C0%0hPa0V00:00:0000:00:0000:00:00
KE7DJD2026-08-30 15:52:1244.48171-117.58619144°100km/h9660m-7.0m/s-33.5°C0%0hPa0V00:00:0000:00:0000:00:00
KE7DJD2026-08-30 15:51:5244.48616-117.59054147°104km/h9809m-7.4m/s-34.7°C0%0hPa0V00:00:0000:00:0000:00:00
KE7DJD2026-08-30 15:51:3144.49050-117.59465148°102km/h9953m-7.1m/s-35.9°C0%0hPa0V00:00:0000:00:0000:00:00
KE7DJD2026-08-30 15:51:1144.49512-117.59892148°106km/h10107m-7.5m/s-37.2°C0%0hPa0V00:00:0000:00:0000:00:00
KE7DJD2026-08-30 15:50:4944.49983-117.60332148°108km/h10260m-7.5m/s-38.5°C0%0hPa0V00:00:0000:00:0000:00:00
KE7DJD2026-08-30 15:50:2944.50453-117.60749149°111km/h10408m-7.2m/s-39.7°C0%0hPa0V00:00:0000:00:0000:00:00
KE7DJD2026-08-30 15:50:0844.50954-117.61190149°113km/h10566m-7.4m/s-41.1°C0%0hPa0V00:00:0000:00:0000:00:00
KE7DJD2026-08-30 15:49:4844.51436-117.61643147°115km/h10719m-7.7m/s-42.3°C0%0hPa0V00:00:0000:00:0000:00:00
KE7DJD2026-08-30 15:49:2844.51948-117.62125148°119km/h10882m-7.9m/s-43.5°C0%0hPa0V00:00:0000:00:0000:00:00
KE7DJD2026-08-30 15:49:0744.52438-117.62579147°115km/h11040m-7.8m/s-45.0°C0%0hPa0V00:00:0000:00:0000:00:00
KE7DJD2026-08-30 15:48:4744.52952-117.63071147°117km/h11207m-8.0m/s-46.6°C0%0hPa0V00:00:0000:00:0000:00:00
KE7DJD2026-08-30 15:48:2644.53421-117.63526144°115km/h11366m-8.0m/s-47.5°C0%0hPa0V00:00:0000:00:0000:00:00
KE7DJD2026-08-30 15:48:0644.53891-117.64022145°104km/h11538m-7.9m/s-48.4°C0%0hPa0V00:00:0000:00:0000:00:00
KE7DJD2026-08-30 15:47:4544.54285-117.64439141°89km/h11698m-8.0m/s-49.1°C0%0hPa0V00:00:0000:00:0000:00:00
KE7DJD2026-08-30 15:47:2544.54618-117.64880135°88km/h11868m-7.9m/s-48.2°C0%0hPa0V00:00:0000:00:0000:00:00
KE7DJD2026-08-30 15:47:0444.54918-117.65340133°91km/h12031m-7.9m/s-49.3°C0%0hPa0V00:00:0000:00:0000:00:00
KE7DJD2026-08-30 15:46:4444.55230-117.65865130°91km/h12203m-7.9m/s-49.6°C0%0hPa0V00:00:0000:00:0000:00:00
KE7DJD2026-08-30 15:46:2344.55478-117.66376120°86km/h12368m-8.3m/s-48.3°C0%0hPa0V00:00:0000:00:0000:00:00
KE7DJD2026-08-30 15:46:0344.55723-117.66962127°91km/h12543m-8.3m/s-47.3°C0%0hPa0V00:00:0000:00:0000:00:00
KE7DJD2026-08-30 15:45:4244.56008-117.67432132°75km/h12719m-8.2m/s-47.3°C0%0hPa0V00:00:0000:00:0000:00:00
KE7DJD2026-08-30 15:45:2144.56247-117.67822129°71km/h12887m-8.5m/s-48.3°C0%0hPa0V00:00:0000:00:0000:00:00
KE7DJD2026-08-30 15:45:0044.56466-117.68280119°77km/h13070m-8.8m/s-47.8°C0%0hPa0V00:00:0000:00:0000:00:00
KE7DJD2026-08-30 15:44:4044.56630-117.68729117°68km/h13248m-9.0m/s-47.8°C0%0hPa0V00:00:0000:00:0000:00:00
KE7DJD2026-08-30 15:44:2044.56781-117.69179119°66km/h13440m-9.4m/s-47.1°C0%0hPa0V00:00:0000:00:0000:00:00
KE7DJD2026-08-30 15:43:5944.56939-117.69610111°64km/h13635m-9.2m/s-47.0°C0%0hPa0V00:00:0000:00:0000:00:00
KE7DJD2026-08-30 15:43:3844.57045-117.70036112°62km/h13825m-9.6m/s-46.9°C0%0hPa0V00:00:0000:00:0000:00:00
KE7DJD2026-08-30 15:43:1844.57130-117.70392102°49km/h14021m-9.7m/s-47.1°C0%0hPa0V00:00:0000:00:0000:00:00
KE7DJD2026-08-30 15:42:5844.57188-117.70786107°58km/h14231m-10.2m/s-47.9°C0%0hPa0V00:00:0000:00:0000:00:00
KE7DJD2026-08-30 15:42:3744.57263-117.71207105°58km/h14438m-9.9m/s-47.4°C0%0hPa0V00:00:0000:00:0000:00:00
KE7DJD2026-08-30 15:42:1744.57342-117.71609109°55km/h14660m-10.4m/s-47.0°C0%0hPa0V00:00:0000:00:0000:00:00
KE7DJD2026-08-30 15:41:5644.57411-117.71934102°42km/h14871m-10.5m/s-47.1°C0%0hPa0V00:00:0000:00:0000:00:00
KE7DJD2026-08-30 15:41:3644.57405-117.7220076°31km/h15097m-10.5m/s-47.7°C0%0hPa0V00:00:0000:00:0000:00:00
KE7DJD2026-08-30 15:41:1544.57339-117.7243170°42km/h15310m-10.6m/s-48.7°C0%0hPa0V00:00:0000:00:0000:00:00
KE7DJD2026-08-30 15:40:5544.57257-117.7277373°53km/h15542m-10.8m/s-49.1°C0%0hPa0V00:00:0000:00:0000:00:00
KE7DJD2026-08-30 15:40:3344.57206-117.7316984°47km/h15779m-10.9m/s-47.3°C0%0hPa0V00:00:0000:00:0000:00:00
KE7DJD2026-08-30 15:40:1344.57134-117.7346863°53km/h16016m-13.8m/s-48.0°C0%0hPa0V00:00:0000:00:0000:00:00
KE7DJD2026-08-30 15:39:3244.56953-117.7418164°53km/h16384m-6.6m/s-47.4°C0%0hPa0V00:00:0000:00:0000:00:00
KE7DJD2026-08-30 15:39:1244.56826-117.7456380°55km/h16538m-7.5m/s-47.5°C0%0hPa0V00:00:0000:00:0000:00:00
KE7DJD2026-08-30 15:38:5144.56747-117.7491461°49km/h16713m-9.1m/s-46.9°C0%0hPa0V00:00:0000:00:0000:00:00
KE7DJD2026-08-30 15:38:3144.56660-117.7529676°58km/h16878m-6.3m/s-45.7°C0%0hPa0V00:00:0000:00:0000:00:00
KE7DJD2026-08-30 15:38:1044.56603-117.7565881°49km/h17023m-7.4m/s-44.8°C0%0hPa0V00:00:0000:00:0000:00:00
KE7DJD2026-08-30 15:37:5044.56567-117.7590661°26km/h17183m-7.1m/s-43.6°C0%0hPa0V00:00:0000:00:0000:00:00
KE7DJD2026-08-30 15:37:2944.56478-117.7604737°29km/h17326m-6.7m/s-44.2°C0%0hPa0V00:00:0000:00:0000:00:00
KE7DJD2026-08-30 15:37:0944.56327-117.7613329km/h17481m-7.6m/s-45.4°C0%0hPa0V00:00:0000:00:0000:00:00
KE7DJD2026-08-30 15:36:4844.56151-117.7622028°44km/h17640m-7.5m/s-46.2°C0%0hPa0V00:00:0000:00:0000:00:00
KE7DJD2026-08-30 15:36:2844.55984-117.7638549°38km/h17786m-7.6m/s-46.6°C0%0hPa0V00:00:0000:00:0000:00:00
KE7DJD2026-08-30 15:36:0744.55860-117.7662250°38km/h17936m-7.6m/s-46.3°C0%0hPa0V00:00:0000:00:0000:00:00
KE7DJD2026-08-30 15:35:4744.55778-117.7684975°37km/h18103m-7.3m/s-46.8°C0%0hPa0V00:00:0000:00:0000:00:00
KE7DJD2026-08-30 15:35:2544.55733-117.7704272°18km/h18274m-8.2m/s-47.0°C0%0hPa0V00:00:0000:00:0000:00:00
KE7DJD2026-08-30 15:35:0544.55747-117.7716693°22km/h18445m-8.4m/s-47.5°C0%0hPa0V00:00:0000:00:0000:00:00
KE7DJD2026-08-30 15:34:4544.55752-117.7726090°11km/h18646m-11.0m/s-48.7°C0%0hPa0V00:00:0000:00:0000:00:00
KE7DJD2026-08-30 15:34:2444.55728-117.77279260°22km/h18851m-10.4m/s-49.2°C0%0hPa0V00:00:0000:00:0000:00:00
KE7DJD2026-08-30 15:34:0344.55643-117.7733045°26km/h19083m-5.7m/s-49.8°C0%0hPa0V00:00:0000:00:0000:00:00
KE7DJD2026-08-30 15:33:4344.55549-117.7743857°26km/h18970m3.8m/s-49.5°C0%0hPa0V00:00:0000:00:0000:00:00
KE7DJD2026-08-30 15:33:2344.55497-117.77468333°22km/h18833m7.3m/s-49.2°C0%0hPa0V00:00:0000:00:0000:00:00
KE7DJD2026-08-30 15:33:0244.55481-117.774680km/h18697m7.6m/s-49.0°C0%0hPa0V00:00:0000:00:0000:00:00
KE7DJD2026-08-30 15:32:4244.55467-117.77555122°7km/h18566m4.0m/s-48.4°C0%0hPa0V00:00:0000:00:0000:00:00
KE7DJD2026-08-30 15:32:2144.55474-117.7767596°11km/h18446m4.8m/s-47.6°C0%0hPa0V00:00:0000:00:0000:00:00
KE7DJD2026-08-30 15:32:0144.55492-117.7780874°15km/h18316m3.7m/s-47.6°C0%0hPa0V00:00:0000:00:0000:00:00
KE7DJD2026-08-30 15:31:4044.55458-117.7798467°27km/h18179m7.1m/s-47.5°C0%0hPa0V00:00:0000:00:0000:00:00
KE7DJD2026-08-30 15:31:2044.55404-117.7821656°40km/h18035m4.8m/s-47.0°C0%0hPa0V00:00:0000:00:0000:00:00
KE7DJD2026-08-30 15:30:5944.55301-117.7843252°46km/h17911m4.0m/s-46.9°C0%0hPa0V00:00:0000:00:0000:00:00
KE7DJD2026-08-30 15:30:3944.55157-117.7866246°40km/h17784m6.8m/s-46.9°C0%0hPa0V00:00:0000:00:0000:00:00
KE7DJD2026-08-30 15:30:1844.54998-117.7883515°40km/h17654m8.0m/s-46.6°C0%0hPa0V00:00:0000:00:0000:00:00
KE7DJD2026-08-30 15:29:5844.54817-117.7892835°29km/h17512m7.4m/s-45.7°C0%0hPa0V00:00:0000:00:0000:00:00
KE7DJD2026-08-30 15:29:3644.54693-117.7904734°27km/h17360m8.8m/s-45.0°C0%0hPa0V00:00:0000:00:0000:00:00
KE7DJD2026-08-30 15:29:1644.54632-117.7916678°31km/h17238m9.7m/s-44.4°C0%0hPa0V00:00:0000:00:0000:00:00
KE7DJD2026-08-30 15:28:5644.54607-117.7942985°44km/h17108m9.4m/s-45.9°C0%0hPa0V00:00:0000:00:0000:00:00
KE7DJD2026-08-30 15:28:3544.54556-117.7978078°57km/h16986m5.9m/s-46.2°C0%0hPa0V00:00:0000:00:0000:00:00
KE7DJD2026-08-30 15:28:1444.54465-117.8012077°47km/h16859m3.3m/s-46.4°C0%0hPa0V00:00:0000:00:0000:00:00
KE7DJD2026-08-30 15:27:5444.54366-117.8041458°46km/h16730m6.2m/s-47.0°C0%0hPa0V00:00:0000:00:0000:00:00
KE7DJD2026-08-30 15:27:3444.54279-117.8069672°46km/h16600m6.4m/s-46.9°C0%0hPa0V00:00:0000:00:0000:00:00
KE7DJD2026-08-30 15:27:1344.54193-117.8100269°49km/h16456m5.4m/s-47.3°C0%0hPa0V00:00:0000:00:0000:00:00
KE7DJD2026-08-30 15:26:5244.54072-117.8131669°40km/h16321m4.1m/s-47.0°C0%0hPa0V00:00:0000:00:0000:00:00
KE7DJD2026-08-30 15:26:3244.53986-117.8159075°42km/h16189m4.5m/s-47.3°C0%0hPa0V00:00:0000:00:0000:00:00
KE7DJD2026-08-30 15:26:1244.53912-117.8189164°44km/h16062m5.0m/s-47.7°C0%0hPa0V00:00:0000:00:0000:00:00
KE7DJD2026-08-30 15:25:5144.53818-117.8221454°35km/h15940m4.9m/s-47.1°C0%0hPa0V00:00:0000:00:0000:00:00
KE7DJD2026-08-30 15:25:3144.53726-117.8246973°47km/h15798m8.0m/s-46.1°C0%0hPa0V00:00:0000:00:0000:00:00
KE7DJD2026-08-30 15:25:1044.53703-117.8273295°38km/h15666m4.2m/s-46.2°C0%0hPa0V00:00:0000:00:0000:00:00
KE7DJD2026-08-30 15:24:5044.53682-117.8310582°58km/h15537m4.5m/s-47.8°C0%0hPa0V00:00:0000:00:0000:00:00
KE7DJD2026-08-30 15:24:2944.53616-117.8349568°46km/h15407m4.9m/s-48.3°C0%0hPa0V00:00:0000:00:0000:00:00
KE7DJD2026-08-30 15:24:0844.53559-117.8382978°47km/h15282m7.2m/s-48.3°C0%0hPa0V00:00:0000:00:0000:00:00
KE7DJD2026-08-30 15:23:4744.53494-117.8412291°38km/h15130m7.2m/s-47.8°C0%0hPa0V00:00:0000:00:0000:00:00
KE7DJD2026-08-30 15:23:2744.53480-117.8436794°44km/h15009m7.5m/s-47.4°C0%0hPa0V00:00:0000:00:0000:00:00
KE7DJD2026-08-30 15:23:0744.53510-117.84681105°46km/h14886m5.9m/s-47.5°C0%0hPa0V00:00:0000:00:0000:00:00
KE7DJD2026-08-30 15:22:4644.53575-117.85036120°44km/h14751m5.2m/s-47.2°C0%0hPa0V00:00:0000:00:0000:00:00
KE7DJD2026-08-30 15:22:2644.53673-117.8543497°62km/h14635m5.2m/s-47.2°C0%0hPa0V00:00:0000:00:0000:00:00
KE7DJD2026-08-30 15:22:0444.53735-117.8588295°60km/h14498m7.2m/s-47.5°C0%0hPa0V00:00:0000:00:0000:00:00
KE7DJD2026-08-30 15:21:4344.53784-117.86333101°64km/h14369m5.8m/s-48.1°C0%0hPa0V00:00:0000:00:0000:00:00
KE7DJD2026-08-30 15:21:2344.53871-117.8678699°64km/h14234m10.4m/s-48.4°C0%0hPa0V00:00:0000:00:0000:00:00
KE7DJD2026-08-30 15:20:2144.54076-117.87872111°60km/h13858m4.0m/s-47.2°C0%0hPa0V00:00:0000:00:0000:00:00
KE7DJD2026-08-30 15:20:0044.54156-117.88268109°55km/h13741m5.4m/s-47.0°C0%0hPa0V00:00:0000:00:0000:00:00
KE7DJD2026-08-30 15:19:4044.54257-117.88692103°58km/h13616m8.6m/s-47.2°C0%0hPa0V00:00:0000:00:0000:00:00
KE7DJD2026-08-30 15:19:1944.54379-117.89100124°58km/h13498m5.4m/s-47.5°C0%0hPa0V00:00:0000:00:0000:00:00
KE7DJD2026-08-30 15:18:3744.54688-117.89947123°64km/h13243m6.6m/s-47.6°C0%0hPa0V00:00:0000:00:0000:00:00
KE7DJD2026-08-30 15:18:1744.54828-117.90396116°71km/h13112m6.5m/s-47.7°C0%0hPa0V00:00:0000:00:0000:00:00
KE7DJD2026-08-30 15:17:5744.55003-117.90874121°66km/h12976m5.5m/s-48.2°C0%0hPa0V00:00:0000:00:0000:00:00
KE7DJD2026-08-30 15:17:3644.55212-117.91308127°62km/h12856m2.7m/s-48.2°C0%0hPa0V00:00:0000:00:0000:00:00
KE7DJD2026-08-30 15:17:1544.55452-117.91733137°55km/h12723m8.9m/s-47.4°C0%0hPa0V00:00:0000:00:0000:00:00
KE7DJD2026-08-30 15:16:5544.55689-117.92071118°62km/h12553m7.7m/s-46.8°C0%0hPa0V00:00:0000:00:0000:00:00
KE7DJD2026-08-30 15:16:3544.55926-117.92608126°86km/h12405m4.9m/s-47.4°C0%0hPa0V00:00:0000:00:0000:00:00
KE7DJD2026-08-30 15:16:1444.56171-117.93172116°88km/h12278m5.9m/s-47.5°C0%0hPa0V00:00:0000:00:0000:00:00
KE7DJD2026-08-30 15:15:5444.56397-117.93677135°88km/h12137m9.3m/s-48.2°C0%0hPa0V00:00:0000:00:0000:00:00
KE7DJD2026-08-30 15:15:3344.56698-117.94160128°104km/h11989m8.4m/s-48.7°C0%0hPa0V00:00:0000:00:0000:00:00
KE7DJD2026-08-30 15:15:1344.56969-117.94651128°88km/h11835m9.2m/s-48.4°C0%0hPa0V00:00:0000:00:0000:00:00
KE7DJD2026-08-30 15:14:5244.57277-117.95040133°80km/h11702m5.8m/s-47.9°C0%0hPa0V00:00:0000:00:0000:00:00
KE7DJD2026-08-30 15:14:3244.57673-117.95490149°111km/h11556m4.1m/s-48.5°C0%0hPa0V00:00:0000:00:0000:00:00
KE7DJD2026-08-30 15:14:1144.58092-117.95858142°119km/h11423m10.6m/s-47.6°C0%0hPa0V00:00:0000:00:0000:00:00
KE7DJD2026-08-30 15:13:5144.58577-117.96277150°106km/h11274m10.9m/s-46.7°C0%0hPa0V00:00:0000:00:0000:00:00
KE7DJD2026-08-30 15:13:3044.59091-117.96690146°126km/h11141m8.7m/s-45.7°C0%0hPa0V00:00:0000:00:0000:00:00
KE7DJD2026-08-30 15:13:1044.59626-117.97156144°93km/h11002m7.4m/s-44.8°C0%0hPa0V00:00:0000:00:0000:00:00
KE7DJD2026-08-30 15:12:4944.60176-117.97591154°126km/h10847m6.6m/s-43.5°C0%0hPa0V00:00:0000:00:0000:00:00
KE7DJD2026-08-30 15:12:2844.60700-117.98039162°106km/h10695m4.0m/s-42.3°C0%0hPa0V00:00:0000:00:0000:00:00
KE7DJD2026-08-30 15:12:0844.61279-117.98464151°120km/h10548m7.7m/s-41.0°C0%0hPa0V00:00:0000:00:0000:00:00
KE7DJD2026-08-30 15:11:4744.61794-117.98875150°115km/h10431m5.3m/s-40.0°C0%0hPa0V00:00:0000:00:0000:00:00
KE7DJD2026-08-30 15:11:2744.62342-117.99393148°124km/h10298m10.8m/s-39.0°C0%0hPa0V00:00:0000:00:0000:00:00
KE7DJD2026-08-30 15:11:0644.62822-117.99796149°106km/h10136m7.6m/s-37.6°C0%0hPa0V00:00:0000:00:0000:00:00
KE7DJD2026-08-30 15:10:4644.63331-118.00233148°100km/h10023m4.0m/s-36.6°C0%0hPa0V00:00:0000:00:0000:00:00
KE7DJD2026-08-30 15:10:2544.63831-118.00622155°102km/h9898m6.3m/s-35.6°C0%0hPa0V00:00:0000:00:0000:00:00
KE7DJD2026-08-30 15:10:0544.64316-118.01086136°93km/h9741m6.2m/s-34.4°C0%0hPa0V00:00:0000:00:0000:00:00
KE7DJD2026-08-30 15:09:4444.64760-118.01504154°110km/h9593m5.0m/s-33.0°C0%0hPa0V00:00:0000:00:0000:00:00
KE7DJD2026-08-30 15:09:2444.65185-118.01958142°130km/h9449m9.9m/s-31.9°C0%0hPa0V00:00:0000:00:0000:00:00
KE7DJD2026-08-30 15:09:0344.65620-118.02442136°113km/h9320m7.0m/s-31.3°C0%0hPa0V00:00:0000:00:0000:00:00
KE7DJD2026-08-30 15:08:4344.66042-118.02952150°88km/h9193m7.0m/s-30.5°C0%0hPa0V00:00:0000:00:0000:00:00
KE7DJD2026-08-30 15:08:2244.66387-118.03387156°97km/h9049m8.2m/s-29.5°C0%0hPa0V00:00:0000:00:0000:00:00
KE7DJD2026-08-30 15:07:4044.67043-118.04293136°69km/h8793m5.7m/s-27.6°C0%0hPa0V00:00:0000:00:0000:00:00
KE7DJD2026-08-30 15:07:2044.67310-118.04758132°75km/h8670m7.3m/s-26.5°C0%0hPa0V00:00:0000:00:0000:00:00
KE7DJD2026-08-30 15:07:0044.67586-118.05193123°73km/h8528m7.5m/s-25.4°C0%0hPa0V00:00:0000:00:0000:00:00
KE7DJD2026-08-30 15:06:3944.67819-118.05669138°73km/h8404m4.7m/s-24.5°C0%0hPa0V00:00:0000:00:0000:00:00
KE7DJD2026-08-30 15:06:1844.68039-118.06161136°66km/h8253m5.8m/s-23.2°C0%0hPa0V00:00:0000:00:0000:00:00
KE7DJD2026-08-30 15:05:5844.68235-118.06627119°62km/h8102m8.3m/s-21.8°C0%0hPa0V00:00:0000:00:0000:00:00
KE7DJD2026-08-30 15:05:3844.68450-118.07114122°53km/h7958m5.2m/s-20.7°C0%0hPa0V00:00:0000:00:0000:00:00
KE7DJD2026-08-30 15:05:1844.68666-118.07547117°78km/h7811m5.6m/s-19.4°C0%0hPa0V00:00:0000:00:0000:00:00
KE7DJD2026-08-30 15:04:5744.68901-118.07974134°86km/h7673m3.2m/s-18.3°C0%0hPa0V00:00:0000:00:0000:00:00
KE7DJD2026-08-30 15:04:3644.69144-118.08420128°89km/h7527m9.4m/s-17.2°C0%0hPa0V00:00:0000:00:0000:00:00
KE7DJD2026-08-30 15:04:1644.69429-118.08796129°86km/h7386m4.8m/s-16.1°C0%0hPa0V00:00:0000:00:0000:00:00
KE7DJD2026-08-30 15:03:5544.69657-118.09200122°55km/h7252m4.2m/s-14.9°C0%0hPa0V00:00:0000:00:0000:00:00
KE7DJD2026-08-30 15:03:3544.69904-118.09575139°77km/h7108m6.5m/s-13.8°C0%0hPa0V00:00:0000:00:0000:00:00
KE7DJD2026-08-30 15:03:1444.70203-118.09956144°86km/h6968m5.2m/s-12.7°C0%0hPa0V00:00:0000:00:0000:00:00


GPX KML Map

© wettersonde.net (DO2JMG) - 2026  -  -